Airfield :
LOGIN :

Register | Disclaimer

   EN    FR    IT 

 










Legend :    VFR   Marginal VFR   IFR   Intensive IFR   Very Intensive IFR
Visi :
Ceiling :
>= 8 km
>= 3000ft
5 to 8 km
1000 to 3000 ft
1500m to 5 km
500 to 1000 ft
800 to 1500m
200 to 500 ft
< 800m
< 200 ft
Symbols :   Thunderstorms  Fog  Heavy snow  Heavy precipitations  Wind > 20 kt
SIGMETs :     Misc.  Thunderstorms  Icing  Turbulence  Mountain Waves  Volcanic Ashes






- Airport Elevation : 184 ft
- IATA code : BRU


EBBR - Bruxelles

CURRENT METAR :
  • 270850Z 22014KT 8000 -DZ BKN007 02/01 Q1011 TEMPO 4000 -DZ BKN004

EXPIRED METARs :
  • 270820Z 22014KT 3500 -DZ BKN006 02/01 Q1011 TEMPO 2500 -DZ BKN004
  • 270750Z 22014KT 3000 -DZ BKN006 BKN008 02/01 Q1011 TEMPO 2500 -DZ
  • 270720Z 22014KT 2800 -DZRA BKN007 02/01 Q1011 TEMPO 4000 -DZ
  • 270650Z 22014KT 4500 -DZ BKN007 02/00 Q1011 TEMPO 2500 -DZ
  • 270620Z 21014KT 7000 -DZ FEW007 BKN009 02/01 Q1011 TEMPO 3000 -DZ

TAF TAF EBBR
Valid from the 27 at 06:00 until the 28 at 12:00 UTC


270520Z 2706/2812 20013KT 8000 SCT008 BKN013
TEMPO 2706/2720 2000 DZ BKN006
PROB40
TEMPO 2720/2724 SCT014
TEMPO 2802/2812 2200 RADZ RA BKN004



MET'MAP, your aeronautical weather chart ! - Copyright ORBIFLY December 2007 - Disclaimer

ORBIFLY MET'MAP TEAM :

Programming & Development : Alexandra Zaïnal
Concept & original design : Baudouin d'Aumeries
Assistance for programming : Marc-Olivier Méhu
Technical & hardware support : Manuel Goepfert

Contact : metmap@orbifly.com




SOURCES & CREDITS :

   NOAA